createdAt,value
2022-10-08T00:01:25.775Z,67.56
2022-10-08T00:03:56.856Z,67.74
2022-10-08T00:06:33.786Z,67.78
2022-10-08T00:09:04.447Z,67.80
2022-10-08T00:11:43.527Z,68.14
2022-10-08T00:14:19.322Z,68.34
2022-10-08T00:16:46.111Z,67.79
2022-10-08T00:19:16.404Z,67.72
2022-10-08T00:21:47.370Z,68.05
2022-10-08T00:24:18.701Z,67.72
2022-10-08T00:26:46.706Z,67.73
2022-10-08T00:29:18.829Z,67.36
2022-10-08T00:31:48.175Z,67.33
2022-10-08T00:34:19.065Z,67.25
2022-10-08T00:36:47.486Z,67.10
2022-10-08T00:39:16.670Z,67.18
2022-10-08T00:41:45.522Z,67.10
2022-10-08T00:44:50.884Z,66.92
2022-10-08T00:47:41.057Z,67.23
2022-10-08T00:50:24.919Z,67.70
2022-10-08T00:52:58.510Z,67.47
2022-10-08T00:55:28.241Z,67.15
2022-10-08T00:58:01.234Z,67.08
2022-10-08T01:00:29.018Z,67.50
2022-10-08T01:02:56.132Z,67.23
2022-10-08T01:05:44.267Z,67.17
2022-10-08T01:08:16.238Z,67.54
2022-10-08T01:10:53.786Z,67.55
2022-10-08T01:13:41.898Z,67.87
2022-10-08T01:16:24.542Z,68.22
2022-10-08T01:19:16.302Z,67.90
2022-10-08T01:22:12.656Z,67.96
2022-10-08T01:25:08.299Z,67.66
2022-10-08T01:27:54.716Z,67.94
2022-10-08T01:30:21.620Z,68.25
2022-10-08T01:33:04.131Z,68.12
2022-10-08T01:35:33.579Z,68.69
2022-10-08T01:38:06.918Z,68.73
2022-10-08T01:40:37.367Z,68.37
2022-10-08T01:43:08.177Z,68.29
2022-10-08T01:45:39.974Z,68.06
2022-10-08T01:48:12.326Z,67.73
2022-10-08T01:50:51.436Z,67.93
2022-10-08T01:53:21.452Z,68.49
2022-10-08T01:55:55.680Z,68.57
2022-10-08T01:58:31.973Z,68.59
2022-10-08T02:01:08.817Z,68.29
2022-10-08T02:03:35.498Z,68.66
2022-10-08T02:06:05.789Z,68.05
2022-10-08T02:08:32.413Z,68.19
2022-10-08T02:11:01.216Z,67.90
2022-10-08T02:13:27.747Z,67.99
2022-10-08T02:16:05.123Z,68.20
2022-10-08T02:18:42.534Z,68.71
2022-10-08T02:21:19.362Z,68.47
2022-10-08T02:24:01.931Z,68.75
2022-10-08T02:26:35.947Z,68.63
2022-10-08T02:29:09.443Z,68.54
2022-10-08T02:32:01.564Z,68.33
2022-10-08T02:34:40.126Z,68.26
2022-10-08T02:37:13.289Z,68.73
2022-10-08T02:39:44.022Z,68.59
2022-10-08T02:42:16.073Z,68.82
2022-10-08T02:44:49.692Z,68.54
2022-10-08T02:47:20.712Z,68.89
2022-10-08T02:49:53.388Z,68.99
2022-10-08T02:52:23.037Z,69.02
2022-10-08T02:54:51.266Z,69.28
2022-10-08T02:57:32.302Z,68.67
2022-10-08T02:59:59.399Z,68.59
2022-10-08T03:02:36.906Z,68.59
2022-10-08T03:05:09.091Z,69.05
2022-10-08T03:07:36.116Z,68.82
2022-10-08T03:10:06.748Z,68.91
2022-10-08T03:12:34.315Z,68.90
2022-10-08T03:15:01.338Z,68.58
2022-10-08T03:17:36.414Z,68.36
2022-10-08T03:20:06.097Z,68.57
2022-10-08T03:22:34.089Z,68.70
2022-10-08T03:25:01.127Z,68.56
2022-10-08T03:27:28.120Z,68.82
2022-10-08T03:29:57.374Z,68.75
2022-10-08T03:32:24.942Z,68.85
2022-10-08T03:34:51.792Z,68.54
2022-10-08T03:37:19.285Z,68.88
2022-10-08T03:39:45.913Z,69.02
2022-10-08T03:42:12.972Z,68.87
2022-10-08T03:44:39.710Z,69.39
2022-10-08T03:47:06.233Z,69.11
2022-10-08T03:49:32.739Z,69.26
2022-10-08T03:51:59.417Z,68.99
2022-10-08T03:54:26.020Z,69.06
2022-10-08T03:56:52.549Z,69.07
2022-10-08T03:59:19.095Z,69.13
2022-10-08T04:01:45.641Z,69.56
2022-10-08T04:04:12.364Z,69.59
2022-10-08T04:06:38.909Z,69.32
2022-10-08T04:09:05.527Z,69.63
2022-10-08T04:11:33.399Z,69.55
2022-10-08T04:14:01.053Z,69.69
2022-10-08T04:16:36.939Z,69.80
2022-10-08T04:19:03.531Z,69.75
2022-10-08T04:21:31.641Z,69.84
2022-10-08T04:23:58.255Z,69.91
2022-10-08T04:26:24.801Z,69.69
2022-10-08T04:28:51.677Z,70.07
2022-10-08T04:31:21.839Z,69.94
2022-10-08T04:33:49.635Z,69.74
2022-10-08T04:36:18.762Z,69.50
2022-10-08T04:38:46.059Z,69.76
2022-10-08T04:41:27.143Z,69.95
2022-10-08T04:43:55.225Z,69.95
2022-10-08T04:46:22.468Z,69.72
2022-10-08T04:48:56.868Z,69.67
2022-10-08T04:51:25.298Z,69.53
2022-10-08T04:53:52.970Z,70.02
2022-10-08T04:56:22.599Z,69.75
2022-10-08T04:58:49.990Z,70.14
2022-10-08T05:01:19.111Z,70.22
2022-10-08T05:03:48.182Z,69.94
2022-10-08T05:06:16.590Z,70.08
2022-10-08T05:08:44.812Z,69.61
2022-10-08T05:11:12.796Z,69.41
2022-10-08T05:13:39.695Z,69.82
2022-10-08T05:16:08.953Z,70.00
2022-10-08T05:18:37.136Z,69.34
2022-10-08T05:21:07.128Z,69.68
2022-10-08T05:23:35.195Z,69.49
2022-10-08T05:26:10.545Z,69.82
2022-10-08T05:28:37.410Z,69.67
2022-10-08T05:31:04.075Z,70.08
2022-10-08T05:33:30.655Z,69.27
2022-10-08T05:35:57.412Z,69.75
2022-10-08T05:38:24.006Z,69.92
2022-10-08T05:40:50.686Z,69.63
2022-10-08T05:43:17.155Z,70.00
2022-10-08T05:45:50.183Z,69.55
2022-10-08T05:48:16.849Z,69.44
2022-10-08T05:50:43.447Z,69.42
2022-10-08T05:53:10.049Z,68.81
2022-10-08T05:55:36.617Z,69.58
2022-10-08T05:58:03.159Z,69.01
2022-10-08T06:00:29.688Z,69.12
2022-10-08T06:02:56.218Z,69.49
2022-10-08T06:05:22.850Z,69.28
2022-10-08T06:07:49.348Z,69.35
2022-10-08T06:10:16.096Z,68.96
2022-10-08T06:12:42.571Z,69.15
2022-10-08T06:15:09.514Z,69.62
2022-10-08T06:17:36.119Z,69.80
2022-10-08T06:20:02.637Z,69.92
2022-10-08T06:22:29.231Z,69.47
2022-10-08T06:24:55.723Z,69.32
2022-10-08T06:27:22.326Z,69.28
2022-10-08T06:29:48.936Z,68.96
2022-10-08T06:32:15.574Z,69.05
2022-10-08T06:34:42.329Z,69.08
2022-10-08T06:37:08.777Z,68.31
2022-10-08T06:39:35.340Z,68.45
2022-10-08T06:42:01.907Z,67.80
2022-10-08T06:44:32.175Z,68.39
2022-10-08T06:46:58.840Z,68.05
2022-10-08T06:49:26.777Z,68.09
2022-10-08T06:51:53.334Z,67.61
2022-10-08T06:54:20.118Z,67.12
2022-10-08T06:56:46.613Z,66.75
2022-10-08T06:59:13.139Z,67.19
2022-10-08T07:01:39.769Z,66.73
2022-10-08T07:04:07.021Z,65.51
2022-10-08T07:06:34.339Z,65.99
2022-10-08T07:09:02.194Z,66.57
2022-10-08T07:11:30.307Z,66.04
2022-10-08T07:13:57.493Z,66.11
2022-10-08T07:16:26.807Z,65.20
2022-10-08T07:18:56.101Z,64.82
2022-10-08T07:21:23.189Z,64.78
2022-10-08T07:23:50.768Z,63.92
2022-10-08T07:26:20.071Z,63.72
2022-10-08T07:28:53.192Z,63.72
2022-10-08T07:31:22.881Z,63.71
2022-10-08T07:33:50.012Z,63.38
2022-10-08T07:36:21.653Z,62.37
2022-10-08T07:38:48.626Z,62.82
2022-10-08T07:41:15.297Z,63.05
2022-10-08T07:43:43.175Z,62.28
2022-10-08T07:46:11.366Z,62.22
2022-10-08T07:48:38.787Z,63.31
2022-10-08T07:51:12.709Z,63.69
2022-10-08T07:53:40.779Z,63.55
2022-10-08T07:56:09.125Z,62.76
2022-10-08T07:58:36.692Z,61.77
2022-10-08T08:01:06.346Z,61.61
2022-10-08T08:03:33.168Z,61.41
2022-10-08T08:06:12.698Z,60.54
2022-10-08T08:08:41.377Z,60.97
2022-10-08T08:11:10.277Z,60.91
2022-10-08T08:13:41.924Z,60.45
2022-10-08T08:16:12.938Z,59.84
2022-10-08T08:18:41.671Z,60.69
2022-10-08T08:21:11.414Z,60.15
2022-10-08T08:23:44.094Z,60.25
2022-10-08T08:26:16.954Z,60.76
2022-10-08T08:28:43.915Z,60.16
2022-10-08T08:31:31.404Z,59.38
2022-10-08T08:34:04.116Z,59.38
2022-10-08T08:36:33.571Z,59.51
2022-10-08T08:39:01.115Z,59.36
2022-10-08T08:41:52.150Z,60.41
2022-10-08T08:44:34.747Z,59.91
2022-10-08T08:47:19.509Z,59.13
2022-10-08T08:49:57.657Z,59.22
2022-10-08T08:52:33.878Z,58.54
2022-10-08T08:55:01.731Z,59.40
2022-10-08T08:57:36.973Z,58.74
2022-10-08T09:00:24.575Z,58.94
2022-10-08T09:02:58.052Z,58.10
2022-10-08T09:05:26.656Z,57.52
2022-10-08T09:08:05.444Z,57.37
2022-10-08T09:10:54.254Z,57.13
2022-10-08T09:13:36.821Z,56.33
2022-10-08T09:16:03.668Z,56.96
2022-10-08T09:18:30.333Z,56.44
2022-10-08T09:20:56.943Z,56.04
2022-10-08T09:23:25.786Z,55.57
2022-10-08T09:26:32.173Z,54.97
2022-10-08T09:29:00.711Z,54.91
2022-10-08T09:31:32.488Z,54.91
2022-10-08T09:34:06.171Z,54.49
2022-10-08T09:36:34.492Z,54.20
2022-10-08T09:39:04.368Z,54.35
2022-10-08T09:41:31.119Z,54.48
2022-10-08T09:44:39.490Z,53.48
2022-10-08T09:47:07.345Z,53.74
2022-10-08T09:49:36.081Z,53.42
2022-10-08T09:52:17.329Z,53.13
2022-10-08T09:54:51.679Z,52.15
2022-10-08T09:57:20.975Z,52.55
2022-10-08T09:59:58.044Z,51.81
2022-10-08T10:02:35.253Z,51.18
2022-10-08T10:05:05.620Z,50.65
2022-10-08T10:07:45.511Z,50.49
2022-10-08T10:10:20.271Z,50.65
2022-10-08T10:12:51.919Z,50.71
2022-10-08T10:15:26.748Z,50.47
2022-10-08T10:18:01.469Z,49.67
2022-10-08T10:20:42.159Z,49.67
2022-10-08T10:23:15.627Z,48.86
2022-10-08T10:25:49.940Z,48.83
2022-10-08T10:28:39.451Z,48.35
2022-10-08T10:31:32.075Z,48.59
2022-10-08T10:34:17.249Z,48.07
2022-10-08T10:36:58.731Z,48.27
2022-10-08T10:39:52.446Z,47.59
2022-10-08T10:42:40.329Z,47.80
2022-10-08T10:45:36.800Z,47.50
2022-10-08T10:48:05.332Z,47.90
2022-10-08T10:50:57.602Z,47.42
2022-10-08T10:53:43.904Z,46.57
2022-10-08T10:56:30.369Z,46.79
2022-10-08T10:59:03.204Z,46.35
2022-10-08T11:01:55.117Z,45.89
2022-10-08T11:05:01.869Z,45.62
2022-10-08T11:07:38.080Z,45.47
2022-10-08T11:10:31.724Z,45.10
2022-10-08T11:13:20.401Z,44.68
2022-10-08T11:16:09.368Z,44.39
2022-10-08T11:18:48.036Z,44.64
2022-10-08T11:21:27.693Z,45.46
2022-10-08T11:24:31.145Z,45.86
2022-10-08T11:27:11.735Z,45.95
2022-10-08T11:29:55.665Z,47.04
2022-10-08T11:32:22.940Z,46.86
2022-10-08T11:35:11.376Z,46.81
2022-10-08T11:37:56.845Z,46.44
2022-10-08T11:40:37.418Z,45.89
2022-10-08T11:43:30.248Z,46.89
2022-10-08T11:46:32.418Z,47.00
2022-10-08T11:49:02.310Z,47.18
2022-10-08T11:51:37.305Z,47.25
2022-10-08T11:54:03.837Z,47.66
2022-10-08T11:56:31.651Z,47.70
2022-10-08T11:59:06.153Z,47.79
2022-10-08T12:01:32.842Z,47.52
2022-10-08T12:04:16.381Z,47.82
2022-10-08T12:06:45.881Z,47.59
2022-10-08T12:09:23.275Z,47.63
2022-10-08T12:11:53.977Z,48.00
2022-10-08T12:14:20.511Z,47.90
2022-10-08T12:16:56.544Z,47.44
2022-10-08T12:19:35.668Z,48.14
2022-10-08T12:22:14.674Z,47.97
2022-10-08T12:24:43.811Z,48.37
2022-10-08T12:27:18.735Z,47.96
2022-10-08T12:30:08.558Z,49.07
2022-10-08T12:32:44.175Z,49.39
2022-10-08T12:35:25.659Z,48.56
2022-10-08T12:38:06.255Z,48.25
2022-10-08T12:40:58.891Z,48.59
2022-10-08T12:43:25.374Z,49.01
2022-10-08T12:46:19.866Z,48.90
2022-10-08T12:48:59.733Z,48.97
2022-10-08T12:51:40.367Z,48.12
2022-10-08T12:54:21.744Z,48.25
2022-10-08T12:56:49.297Z,48.53
2022-10-08T12:59:18.132Z,48.66
2022-10-08T13:01:47.176Z,48.95
2022-10-08T13:04:32.455Z,49.35
2022-10-08T13:06:58.953Z,48.78
2022-10-08T13:09:33.415Z,48.58
2022-10-08T13:12:05.910Z,48.95
2022-10-08T13:14:38.658Z,48.80
2022-10-08T13:17:05.787Z,49.53
2022-10-08T13:19:38.977Z,48.49
2022-10-08T13:22:21.359Z,49.05
2022-10-08T13:24:48.057Z,48.61
2022-10-08T13:27:25.736Z,48.40
2022-10-08T13:29:53.155Z,48.51
2022-10-08T13:32:29.547Z,48.35
2022-10-08T13:34:59.517Z,48.47
2022-10-08T13:37:31.491Z,48.31
2022-10-08T13:40:02.442Z,48.61
2022-10-08T13:42:32.938Z,48.77
2022-10-08T13:45:01.747Z,48.59
2022-10-08T13:47:29.105Z,48.36
2022-10-08T13:50:01.879Z,48.70
2022-10-08T13:52:30.983Z,48.55
2022-10-08T13:55:01.150Z,48.71
2022-10-08T13:57:27.708Z,48.79
2022-10-08T13:59:54.243Z,49.01
2022-10-08T14:02:20.962Z,48.71
2022-10-08T14:04:48.917Z,48.76
2022-10-08T14:07:31.427Z,48.80
2022-10-08T14:10:00.355Z,48.64
2022-10-08T14:12:30.792Z,49.02
2022-10-08T14:14:57.519Z,48.47
2022-10-08T14:17:24.320Z,48.95
2022-10-08T14:19:52.665Z,49.19
2022-10-08T14:22:19.104Z,49.20
2022-10-08T14:24:45.863Z,49.02
2022-10-08T14:27:15.390Z,49.12
2022-10-08T14:29:44.404Z,49.52
2022-10-08T14:32:11.722Z,49.29
2022-10-08T14:34:39.139Z,49.58
2022-10-08T14:37:09.328Z,48.86
2022-10-08T14:39:36.307Z,49.37
2022-10-08T14:42:02.837Z,49.53
2022-10-08T14:44:29.374Z,49.52
2022-10-08T14:46:56.047Z,49.41
2022-10-08T14:49:24.031Z,49.45
2022-10-08T14:51:50.546Z,49.51
2022-10-08T14:54:18.185Z,48.94
2022-10-08T14:56:45.009Z,49.42
2022-10-08T14:59:11.684Z,49.08
2022-10-08T15:01:41.651Z,49.46
2022-10-08T15:04:08.505Z,49.45
2022-10-08T15:06:35.287Z,49.78
2022-10-08T15:09:01.920Z,49.36
2022-10-08T15:11:28.483Z,48.96
2022-10-08T15:13:55.525Z,49.58
2022-10-08T15:16:22.406Z,49.66
2022-10-08T15:18:49.062Z,49.54
2022-10-08T15:21:15.724Z,49.61
2022-10-08T15:23:42.341Z,50.12
2022-10-08T15:26:14.782Z,50.48
2022-10-08T15:28:42.972Z,50.30
2022-10-08T15:31:17.291Z,50.20
2022-10-08T15:33:49.094Z,50.08
2022-10-08T15:36:30.062Z,50.03
2022-10-08T15:39:02.132Z,49.91
2022-10-08T15:41:31.019Z,50.34
2022-10-08T15:44:13.544Z,50.31
2022-10-08T15:46:40.064Z,50.29
2022-10-08T15:49:06.800Z,50.40
2022-10-08T15:51:33.809Z,50.77
2022-10-08T15:54:01.224Z,51.47
2022-10-08T15:56:28.498Z,51.32
2022-10-08T15:58:55.409Z,51.59
2022-10-08T16:01:23.641Z,51.64
2022-10-08T16:03:52.683Z,51.77
2022-10-08T16:06:22.712Z,51.79
2022-10-08T16:08:49.826Z,52.09
2022-10-08T16:11:23.612Z,51.80
2022-10-08T16:14:14.378Z,52.03
2022-10-08T16:16:41.559Z,52.11
2022-10-08T16:19:13.663Z,52.07
2022-10-08T16:21:40.311Z,52.57
2022-10-08T16:24:06.971Z,52.79
2022-10-08T16:26:35.431Z,53.15
2022-10-08T16:29:07.253Z,53.30
2022-10-08T16:31:36.407Z,53.05
2022-10-08T16:34:08.657Z,53.51
2022-10-08T16:36:36.639Z,53.38
2022-10-08T16:39:08.058Z,53.79
2022-10-08T16:41:36.676Z,54.14
2022-10-08T16:44:13.181Z,54.34
2022-10-08T16:46:42.847Z,54.36
2022-10-08T16:49:14.011Z,54.93
2022-10-08T16:51:40.993Z,54.71
2022-10-08T16:54:10.964Z,55.13
2022-10-08T16:56:39.644Z,55.23
2022-10-08T16:59:12.326Z,55.17
2022-10-08T17:01:42.803Z,55.45
2022-10-08T17:04:10.215Z,55.43
2022-10-08T17:06:37.350Z,55.37
2022-10-08T17:09:07.061Z,55.81
2022-10-08T17:11:35.070Z,56.08
2022-10-08T17:14:02.918Z,55.88
2022-10-08T17:16:31.296Z,56.14
2022-10-08T17:18:59.770Z,56.56
2022-10-08T17:21:27.660Z,56.38
2022-10-08T17:23:57.658Z,57.03
2022-10-08T17:26:25.992Z,56.99
2022-10-08T17:28:52.915Z,56.96
2022-10-08T17:31:25.289Z,57.14
2022-10-08T17:33:52.430Z,57.15
2022-10-08T17:36:22.497Z,57.00
2022-10-08T17:38:52.586Z,56.81
2022-10-08T17:41:21.657Z,57.10
2022-10-08T17:43:49.630Z,56.93
2022-10-08T17:46:25.036Z,57.11
2022-10-08T17:48:52.192Z,57.30
2022-10-08T17:51:20.773Z,57.52
2022-10-08T17:53:58.800Z,57.81
2022-10-08T17:56:25.617Z,58.00
2022-10-08T17:58:53.936Z,58.50
2022-10-08T18:01:23.450Z,58.79
2022-10-08T18:03:58.631Z,58.76
2022-10-08T18:06:26.829Z,59.14
2022-10-08T18:08:58.064Z,59.20
2022-10-08T18:11:26.605Z,59.23
2022-10-08T18:13:56.335Z,59.42
2022-10-08T18:16:23.412Z,59.57
2022-10-08T18:18:50.055Z,59.53
2022-10-08T18:21:18.275Z,59.65
2022-10-08T18:23:46.728Z,59.38
2022-10-08T18:26:22.289Z,59.93
2022-10-08T18:28:59.929Z,60.13
2022-10-08T18:31:29.946Z,59.87
2022-10-08T18:34:00.646Z,60.08
2022-10-08T18:36:29.674Z,60.13
2022-10-08T18:39:02.724Z,60.12
2022-10-08T18:41:32.062Z,60.07
2022-10-08T18:44:05.797Z,60.07
2022-10-08T18:46:35.950Z,60.16
2022-10-08T18:49:03.094Z,60.26
2022-10-08T18:51:30.499Z,60.46
2022-10-08T18:53:58.807Z,60.63
2022-10-08T18:56:30.890Z,60.83
2022-10-08T18:58:58.905Z,60.59
2022-10-08T19:01:28.039Z,60.91
2022-10-08T19:03:57.479Z,60.80
2022-10-08T19:06:31.720Z,60.90
2022-10-08T19:09:00.121Z,60.14
2022-10-08T19:11:33.879Z,60.59
2022-10-08T19:14:01.241Z,60.85
2022-10-08T19:16:28.436Z,61.08
2022-10-08T19:19:03.974Z,61.58
2022-10-08T19:21:32.243Z,60.75
2022-10-08T19:23:59.718Z,61.16
2022-10-08T19:26:27.820Z,60.99
2022-10-08T19:28:54.855Z,61.49
2022-10-08T19:31:25.381Z,61.64
2022-10-08T19:33:55.380Z,61.64
2022-10-08T19:36:23.584Z,61.95
2022-10-08T19:38:55.475Z,61.98
2022-10-08T19:41:23.632Z,62.22
2022-10-08T19:43:54.376Z,62.25
2022-10-08T19:46:22.605Z,62.31
2022-10-08T19:48:50.333Z,62.68
2022-10-08T19:51:18.229Z,62.79
2022-10-08T19:53:45.564Z,62.81
2022-10-08T19:56:13.090Z,62.90
2022-10-08T19:58:45.020Z,62.93
2022-10-08T20:01:19.690Z,63.23
2022-10-08T20:03:47.063Z,63.45
2022-10-08T20:06:24.345Z,63.41
2022-10-08T20:08:56.489Z,63.42
2022-10-08T20:11:23.294Z,64.05
2022-10-08T20:13:51.622Z,64.10
2022-10-08T20:16:23.937Z,63.75
2022-10-08T20:18:55.939Z,63.88
2022-10-08T20:21:22.880Z,63.52
2022-10-08T20:23:49.964Z,63.74
2022-10-08T20:26:21.249Z,63.72
2022-10-08T20:28:50.892Z,63.89
2022-10-08T20:31:27.433Z,63.92
2022-10-08T20:33:58.224Z,64.11
2022-10-08T20:36:25.801Z,64.00
2022-10-08T20:38:52.884Z,63.73
2022-10-08T20:41:20.163Z,63.56
2022-10-08T20:43:47.211Z,64.10
2022-10-08T20:46:15.646Z,63.96
2022-10-08T20:48:44.329Z,64.60
2022-10-08T20:51:18.056Z,64.29
2022-10-08T20:53:49.668Z,64.46
2022-10-08T20:56:16.761Z,64.93
2022-10-08T20:58:44.021Z,64.37
2022-10-08T21:01:17.071Z,64.08
2022-10-08T21:03:45.267Z,64.57
2022-10-08T21:06:20.697Z,64.45
2022-10-08T21:08:48.982Z,64.27
2022-10-08T21:11:21.089Z,64.35
2022-10-08T21:13:48.463Z,64.50
2022-10-08T21:16:20.853Z,64.50
2022-10-08T21:18:57.059Z,64.56
2022-10-08T21:21:24.867Z,64.96
2022-10-08T21:23:51.444Z,64.64
2022-10-08T21:26:23.785Z,64.55
2022-10-08T21:28:52.691Z,64.75
2022-10-08T21:31:20.908Z,64.75
2022-10-08T21:33:50.035Z,65.19
2022-10-08T21:36:28.391Z,64.94
2022-10-08T21:38:55.193Z,64.76
2022-10-08T21:41:24.020Z,64.49
2022-10-08T21:43:56.937Z,64.33
2022-10-08T21:46:26.038Z,64.22
2022-10-08T21:49:00.942Z,64.09
2022-10-08T21:51:28.756Z,64.38
2022-10-08T21:53:58.419Z,64.73
2022-10-08T21:56:27.606Z,64.86
2022-10-08T21:58:57.090Z,64.88
2022-10-08T22:01:31.137Z,65.08
2022-10-08T22:04:00.103Z,65.01
2022-10-08T22:06:28.579Z,64.84
2022-10-08T22:08:56.040Z,65.01
2022-10-08T22:11:23.249Z,64.73
2022-10-08T22:13:49.944Z,64.76
2022-10-08T22:16:18.333Z,65.39
2022-10-08T22:18:45.261Z,65.68
2022-10-08T22:21:21.771Z,65.35
2022-10-08T22:23:49.755Z,65.74
2022-10-08T22:26:18.967Z,66.16
2022-10-08T22:28:45.589Z,65.61
2022-10-08T22:31:14.078Z,65.52
2022-10-08T22:33:41.043Z,65.54
2022-10-08T22:36:15.001Z,66.04
2022-10-08T22:38:43.013Z,65.64
2022-10-08T22:41:22.286Z,65.69
2022-10-08T22:43:49.702Z,65.77
2022-10-08T22:46:21.999Z,65.95
2022-10-08T22:48:49.392Z,66.45
2022-10-08T22:51:19.877Z,66.12
2022-10-08T22:53:46.828Z,66.38
2022-10-08T22:56:18.486Z,66.54
2022-10-08T22:58:45.805Z,66.78
2022-10-08T23:01:14.941Z,66.28
2022-10-08T23:03:42.237Z,66.39
2022-10-08T23:06:16.798Z,66.57
2022-10-08T23:08:45.624Z,66.34
2022-10-08T23:11:13.613Z,66.74
2022-10-08T23:13:40.617Z,65.96
2022-10-08T23:16:11.799Z,65.85
2022-10-08T23:18:40.806Z,65.40
2022-10-08T23:21:13.855Z,65.52
2022-10-08T23:23:40.551Z,65.71
2022-10-08T23:26:08.301Z,66.29
2022-10-08T23:28:36.175Z,66.89
2022-10-08T23:31:08.090Z,66.90
2022-10-08T23:33:38.042Z,67.25
2022-10-08T23:36:06.913Z,67.72
2022-10-08T23:38:35.322Z,68.19
2022-10-08T23:41:04.492Z,68.33
2022-10-08T23:43:42.342Z,68.09
2022-10-08T23:46:11.048Z,67.63
2022-10-08T23:48:38.433Z,67.90
2022-10-08T23:51:06.500Z,67.72
2022-10-08T23:53:34.023Z,67.45
2022-10-08T23:56:01.003Z,67.34
2022-10-08T23:58:27.871Z,67.26
